<?xml version="1.0" encoding="UTF-8" standalone="no" ?>
<gpx xmlns="http://www.topografix.com/GPX/1/1" xmlns:xsi="http://www.w3.org/2001/XMLSchema-instance" xsi:schemaLocation="http://www.topografix.com/GPX/1/1 http://www.topografix.com/GPX/1/1/gpx.xsd" version="1.1" creator="VisuGPX - https://www.visugpx.com">
  <metadata>
    <name>Sortie Moto</name>
  </metadata>
  <trk>
    <name><![CDATA[Journal actif: 2020-04-17 17:14]]></name>
    <trkseg>
      <trkpt lat="46.00181" lon="6.19997">
        <ele>578.85</ele>
        <time>2020-04-17T15:14:28Z</time>
      </trkpt>
      <trkpt lat="46.00186" lon="6.19991">
        <ele>577.41</ele>
        <time>2020-04-17T15:15:00Z</time>
      </trkpt>
      <trkpt lat="46.00181" lon="6.19996">
        <ele>563.47</ele>
        <time>2020-04-17T15:15:34Z</time>
      </trkpt>
      <trkpt lat="46.00194" lon="6.2002">
        <ele>566.35</ele>
        <time>2020-04-17T15:15:38Z</time>
      </trkpt>
      <trkpt lat="46.00193" lon="6.20023">
        <ele>566.83</ele>
        <time>2020-04-17T15:15:39Z</time>
      </trkpt>
      <trkpt lat="46.00191" lon="6.20028">
        <ele>567.32</ele>
        <time>2020-04-17T15:15:40Z</time>
      </trkpt>
      <trkpt lat="46.0019" lon="6.20031">
        <ele>567.32</ele>
        <time>2020-04-17T15:15:41Z</time>
      </trkpt>
      <trkpt lat="46.00193" lon="6.20022">
        <ele>568.28</ele>
        <time>2020-04-17T15:15:48Z</time>
      </trkpt>
      <trkpt lat="46.00197" lon="6.20013">
        <ele>568.28</ele>
        <time>2020-04-17T15:15:49Z</time>
      </trkpt>
      <trkpt lat="46.00228" lon="6.1993">
        <ele>566.35</ele>
        <time>2020-04-17T15:15:54Z</time>
      </trkpt>
      <trkpt lat="46.00279" lon="6.1979">
        <ele>564.91</ele>
        <time>2020-04-17T15:16:00Z</time>
      </trkpt>
      <trkpt lat="46.00282" lon="6.19763">
        <ele>564.91</ele>
        <time>2020-04-17T15:16:01Z</time>
      </trkpt>
      <trkpt lat="46.00284" lon="6.19736">
        <ele>564.91</ele>
        <time>2020-04-17T15:16:02Z</time>
      </trkpt>
      <trkpt lat="46.00301" lon="6.19448">
        <ele>564.91</ele>
        <time>2020-04-17T15:16:12Z</time>
      </trkpt>
      <trkpt lat="46.00365" lon="6.1912">
        <ele>564.43</ele>
        <time>2020-04-17T15:16:24Z</time>
      </trkpt>
      <trkpt lat="46.00393" lon="6.18991">
        <ele>562.03</ele>
        <time>2020-04-17T15:16:31Z</time>
      </trkpt>
      <trkpt lat="46.00399" lon="6.18961">
        <ele>559.14</ele>
        <time>2020-04-17T15:16:34Z</time>
      </trkpt>
      <trkpt lat="46.00401" lon="6.18955">
        <ele>558.18</ele>
        <time>2020-04-17T15:16:35Z</time>
      </trkpt>
      <trkpt lat="46.00394" lon="6.18951">
        <ele>557.22</ele>
        <time>2020-04-17T15:16:36Z</time>
      </trkpt>
      <trkpt lat="46.0039" lon="6.18949">
        <ele>556.26</ele>
        <time>2020-04-17T15:16:37Z</time>
      </trkpt>
      <trkpt lat="46.00384" lon="6.18945">
        <ele>555.3</ele>
        <time>2020-04-17T15:16:38Z</time>
      </trkpt>
      <trkpt lat="46.00379" lon="6.18942">
        <ele>554.82</ele>
        <time>2020-04-17T15:16:39Z</time>
      </trkpt>
      <trkpt lat="46.00372" lon="6.18935">
        <ele>554.34</ele>
        <time>2020-04-17T15:16:40Z</time>
      </trkpt>
      <trkpt lat="46.00366" lon="6.18929">
        <ele>553.86</ele>
        <time>2020-04-17T15:16:41Z</time>
      </trkpt>
      <trkpt lat="46.00361" lon="6.18919">
        <ele>552.9</ele>
        <time>2020-04-17T15:16:42Z</time>
      </trkpt>
      <trkpt lat="46.00358" lon="6.18906">
        <ele>551.93</ele>
        <time>2020-04-17T15:16:43Z</time>
      </trkpt>
      <trkpt lat="46.0036" lon="6.18895">
        <ele>551.45</ele>
        <time>2020-04-17T15:16:44Z</time>
      </trkpt>
      <trkpt lat="46.00368" lon="6.18883">
        <ele>550.97</ele>
        <time>2020-04-17T15:16:45Z</time>
      </trkpt>
      <trkpt lat="46.00375" lon="6.18879">
        <ele>550.49</ele>
        <time>2020-04-17T15:16:46Z</time>
      </trkpt>
      <trkpt lat="46.00385" lon="6.18878">
        <ele>550.01</ele>
        <time>2020-04-17T15:16:47Z</time>
      </trkpt>
      <trkpt lat="46.00394" lon="6.18882">
        <ele>550.01</ele>
        <time>2020-04-17T15:16:48Z</time>
      </trkpt>
      <trkpt lat="46.00406" lon="6.18888">
        <ele>550.01</ele>
        <time>2020-04-17T15:16:49Z</time>
      </trkpt>
      <trkpt lat="46.0042" lon="6.18895">
        <ele>550.49</ele>
        <time>2020-04-17T15:16:50Z</time>
      </trkpt>
      <trkpt lat="46.00433" lon="6.18907">
        <ele>551.45</ele>
        <time>2020-04-17T15:16:51Z</time>
      </trkpt>
      <trkpt lat="46.00481" lon="6.18969">
        <ele>555.78</ele>
        <time>2020-04-17T15:16:54Z</time>
      </trkpt>
      <trkpt lat="46.00497" lon="6.18997">
        <ele>557.7</ele>
        <time>2020-04-17T15:16:55Z</time>
      </trkpt>
      <trkpt lat="46.00513" lon="6.19028">
        <ele>559.62</ele>
        <time>2020-04-17T15:16:56Z</time>
      </trkpt>
      <trkpt lat="46.00528" lon="6.1906">
        <ele>562.03</ele>
        <time>2020-04-17T15:16:57Z</time>
      </trkpt>
      <trkpt lat="46.00542" lon="6.19094">
        <ele>563.95</ele>
        <time>2020-04-17T15:16:58Z</time>
      </trkpt>
      <trkpt lat="46.00612" lon="6.19279">
        <ele>576.93</ele>
        <time>2020-04-17T15:17:04Z</time>
      </trkpt>
      <trkpt lat="46.00665" lon="6.1943">
        <ele>588.46</ele>
        <time>2020-04-17T15:17:11Z</time>
      </trkpt>
      <trkpt lat="46.00688" lon="6.19488">
        <ele>592.31</ele>
        <time>2020-04-17T15:17:15Z</time>
      </trkpt>
      <trkpt lat="46.00695" lon="6.19505">
        <ele>592.79</ele>
        <time>2020-04-17T15:17:16Z</time>
      </trkpt>
      <trkpt lat="46.00694" lon="6.19515">
        <ele>592.79</ele>
        <time>2020-04-17T15:17:17Z</time>
      </trkpt>
      <trkpt lat="46.00692" lon="6.1953">
        <ele>593.27</ele>
        <time>2020-04-17T15:17:18Z</time>
      </trkpt>
      <trkpt lat="46.00684" lon="6.1954">
        <ele>593.27</ele>
        <time>2020-04-17T15:17:19Z</time>
      </trkpt>
      <trkpt lat="46.00675" lon="6.19538">
        <ele>593.75</ele>
        <time>2020-04-17T15:17:20Z</time>
      </trkpt>
      <trkpt lat="46.00668" lon="6.19535">
        <ele>594.23</ele>
        <time>2020-04-17T15:17:21Z</time>
      </trkpt>
      <trkpt lat="46.00662" lon="6.19523">
        <ele>594.23</ele>
        <time>2020-04-17T15:17:22Z</time>
      </trkpt>
      <trkpt lat="46.00656" lon="6.19511">
        <ele>594.71</ele>
        <time>2020-04-17T15:17:23Z</time>
      </trkpt>
      <trkpt lat="46.0065" lon="6.19498">
        <ele>595.19</ele>
        <time>2020-04-17T15:17:24Z</time>
      </trkpt>
      <trkpt lat="46.00644" lon="6.19484">
        <ele>595.67</ele>
        <time>2020-04-17T15:17:25Z</time>
      </trkpt>
      <trkpt lat="46.00573" lon="6.19346">
        <ele>602.4</ele>
        <time>2020-04-17T15:17:33Z</time>
      </trkpt>
      <trkpt lat="46.00562" lon="6.19332">
        <ele>602.88</ele>
        <time>2020-04-17T15:17:34Z</time>
      </trkpt>
      <trkpt lat="46.00549" lon="6.19321">
        <ele>603.85</ele>
        <time>2020-04-17T15:17:35Z</time>
      </trkpt>
      <trkpt lat="46.00537" lon="6.19312">
        <ele>604.33</ele>
        <time>2020-04-17T15:17:36Z</time>
      </trkpt>
      <trkpt lat="46.00524" lon="6.19308">
        <ele>605.29</ele>
        <time>2020-04-17T15:17:37Z</time>
      </trkpt>
      <trkpt lat="46.00512" lon="6.19311">
        <ele>606.73</ele>
        <time>2020-04-17T15:17:38Z</time>
      </trkpt>
      <trkpt lat="46.005" lon="6.19318">
        <ele>607.69</ele>
        <time>2020-04-17T15:17:39Z</time>
      </trkpt>
      <trkpt lat="46.00492" lon="6.1933">
        <ele>608.65</ele>
        <time>2020-04-17T15:17:40Z</time>
      </trkpt>
      <trkpt lat="46.00485" lon="6.19346">
        <ele>609.61</ele>
        <time>2020-04-17T15:17:41Z</time>
      </trkpt>
      <trkpt lat="46.0048" lon="6.19362">
        <ele>610.57</ele>
        <time>2020-04-17T15:17:42Z</time>
      </trkpt>
      <trkpt lat="46.0048" lon="6.19382">
        <ele>611.54</ele>
        <time>2020-04-17T15:17:43Z</time>
      </trkpt>
      <trkpt lat="46.00486" lon="6.19399">
        <ele>612.02</ele>
        <time>2020-04-17T15:17:44Z</time>
      </trkpt>
      <trkpt lat="46.00493" lon="6.19418">
        <ele>613.46</ele>
        <time>2020-04-17T15:17:45Z</time>
      </trkpt>
      <trkpt lat="46.00502" lon="6.19435">
        <ele>614.42</ele>
        <time>2020-04-17T15:17:46Z</time>
      </trkpt>
      <trkpt lat="46.00514" lon="6.19454">
        <ele>614.9</ele>
        <time>2020-04-17T15:17:47Z</time>
      </trkpt>
      <trkpt lat="46.00525" lon="6.19472">
        <ele>615.86</ele>
        <time>2020-04-17T15:17:48Z</time>
      </trkpt>
      <trkpt lat="46.00542" lon="6.19488">
        <ele>616.34</ele>
        <time>2020-04-17T15:17:49Z</time>
      </trkpt>
      <trkpt lat="46.00558" lon="6.19503">
        <ele>617.3</ele>
        <time>2020-04-17T15:17:50Z</time>
      </trkpt>
      <trkpt lat="46.00589" lon="6.19536">
        <ele>619.71</ele>
        <time>2020-04-17T15:17:52Z</time>
      </trkpt>
      <trkpt lat="46.00603" lon="6.19553">
        <ele>620.67</ele>
        <time>2020-04-17T15:17:53Z</time>
      </trkpt>
      <trkpt lat="46.00614" lon="6.19577">
        <ele>622.11</ele>
        <time>2020-04-17T15:17:54Z</time>
      </trkpt>
      <trkpt lat="46.00624" lon="6.19601">
        <ele>623.07</ele>
        <time>2020-04-17T15:17:55Z</time>
      </trkpt>
      <trkpt lat="46.00634" lon="6.19627">
        <ele>624.51</ele>
        <time>2020-04-17T15:17:56Z</time>
      </trkpt>
      <trkpt lat="46.007" lon="6.19814">
        <ele>632.68</ele>
        <time>2020-04-17T15:18:03Z</time>
      </trkpt>
      <trkpt lat="46.00776" lon="6.20166">
        <ele>647.1</ele>
        <time>2020-04-17T15:18:15Z</time>
      </trkpt>
      <trkpt lat="46.00874" lon="6.20508">
        <ele>658.16</ele>
        <time>2020-04-17T15:18:28Z</time>
      </trkpt>
      <trkpt lat="46.00883" lon="6.20532">
        <ele>658.64</ele>
        <time>2020-04-17T15:18:29Z</time>
      </trkpt>
      <trkpt lat="46.00896" lon="6.20552">
        <ele>659.12</ele>
        <time>2020-04-17T15:18:30Z</time>
      </trkpt>
      <trkpt lat="46.0091" lon="6.20571">
        <ele>660.08</ele>
        <time>2020-04-17T15:18:31Z</time>
      </trkpt>
      <trkpt lat="46.00925" lon="6.20589">
        <ele>660.08</ele>
        <time>2020-04-17T15:18:32Z</time>
      </trkpt>
      <trkpt lat="46.0109" lon="6.20784">
        <ele>662.01</ele>
        <time>2020-04-17T15:18:42Z</time>
      </trkpt>
      <trkpt lat="46.01283" lon="6.21019">
        <ele>665.37</ele>
        <time>2020-04-17T15:18:53Z</time>
      </trkpt>
      <trkpt lat="46.01411" lon="6.21208">
        <ele>670.18</ele>
        <time>2020-04-17T15:19:01Z</time>
      </trkpt>
      <trkpt lat="46.01541" lon="6.21348">
        <ele>674.5</ele>
        <time>2020-04-17T15:19:08Z</time>
      </trkpt>
      <trkpt lat="46.01694" lon="6.21509">
        <ele>678.35</ele>
        <time>2020-04-17T15:19:16Z</time>
      </trkpt>
      <trkpt lat="46.01709" lon="6.21535">
        <ele>679.31</ele>
        <time>2020-04-17T15:19:17Z</time>
      </trkpt>
      <trkpt lat="46.01722" lon="6.21562">
        <ele>679.79</ele>
        <time>2020-04-17T15:19:18Z</time>
      </trkpt>
      <trkpt lat="46.01846" lon="6.21864">
        <ele>682.19</ele>
        <time>2020-04-17T15:19:28Z</time>
      </trkpt>
      <trkpt lat="46.01912" lon="6.22081">
        <ele>685.08</ele>
        <time>2020-04-17T15:19:35Z</time>
      </trkpt>
      <trkpt lat="46.01967" lon="6.22399">
        <ele>689.88</ele>
        <time>2020-04-17T15:19:45Z</time>
      </trkpt>
      <trkpt lat="46.02017" lon="6.22741">
        <ele>697.57</ele>
        <time>2020-04-17T15:19:55Z</time>
      </trkpt>
      <trkpt lat="46.02044" lon="6.22916">
        <ele>699.5</ele>
        <time>2020-04-17T15:20:00Z</time>
      </trkpt>
      <trkpt lat="46.02053" lon="6.22947">
        <ele>699.98</ele>
        <time>2020-04-17T15:20:01Z</time>
      </trkpt>
      <trkpt lat="46.02063" lon="6.22977">
        <ele>699.98</ele>
        <time>2020-04-17T15:20:02Z</time>
      </trkpt>
      <trkpt lat="46.02076" lon="6.23003">
        <ele>699.98</ele>
        <time>2020-04-17T15:20:03Z</time>
      </trkpt>
      <trkpt lat="46.0209" lon="6.23026">
        <ele>699.98</ele>
        <time>2020-04-17T15:20:04Z</time>
      </trkpt>
      <trkpt lat="46.02106" lon="6.23046">
        <ele>699.98</ele>
        <time>2020-04-17T15:20:05Z</time>
      </trkpt>
      <trkpt lat="46.02121" lon="6.23064">
        <ele>699.5</ele>
        <time>2020-04-17T15:20:06Z</time>
      </trkpt>
      <trkpt lat="46.02147" lon="6.23101">
        <ele>699.98</ele>
        <time>2020-04-17T15:20:08Z</time>
      </trkpt>
      <trkpt lat="46.02228" lon="6.23257">
        <ele>703.82</ele>
        <time>2020-04-17T15:20:17Z</time>
      </trkpt>
      <trkpt lat="46.02272" lon="6.23348">
        <ele>706.71</ele>
        <time>2020-04-17T15:20:22Z</time>
      </trkpt>
      <trkpt lat="46.02282" lon="6.23364">
        <ele>707.67</ele>
        <time>2020-04-17T15:20:23Z</time>
      </trkpt>
      <trkpt lat="46.02293" lon="6.2338">
        <ele>708.15</ele>
        <time>2020-04-17T15:20:24Z</time>
      </trkpt>
      <trkpt lat="46.02307" lon="6.23393">
        <ele>708.63</ele>
        <time>2020-04-17T15:20:25Z</time>
      </trkpt>
      <trkpt lat="46.02322" lon="6.23406">
        <ele>709.59</ele>
        <time>2020-04-17T15:20:26Z</time>
      </trkpt>
      <trkpt lat="46.02339" lon="6.23421">
        <ele>710.55</ele>
        <time>2020-04-17T15:20:27Z</time>
      </trkpt>
      <trkpt lat="46.02397" lon="6.23473">
        <ele>713.92</ele>
        <time>2020-04-17T15:20:30Z</time>
      </trkpt>
      <trkpt lat="46.02414" lon="6.23498">
        <ele>715.36</ele>
        <time>2020-04-17T15:20:31Z</time>
      </trkpt>
      <trkpt lat="46.0243" lon="6.23526">
        <ele>716.32</ele>
        <time>2020-04-17T15:20:32Z</time>
      </trkpt>
      <trkpt lat="46.02444" lon="6.23556">
        <ele>717.76</ele>
        <time>2020-04-17T15:20:33Z</time>
      </trkpt>
      <trkpt lat="46.02458" lon="6.23587">
        <ele>719.2</ele>
        <time>2020-04-17T15:20:34Z</time>
      </trkpt>
      <trkpt lat="46.0249" lon="6.23646">
        <ele>721.61</ele>
        <time>2020-04-17T15:20:36Z</time>
      </trkpt>
      <trkpt lat="46.02507" lon="6.23675">
        <ele>722.57</ele>
        <time>2020-04-17T15:20:37Z</time>
      </trkpt>
      <trkpt lat="46.02528" lon="6.23699">
        <ele>723.53</ele>
        <time>2020-04-17T15:20:38Z</time>
      </trkpt>
      <trkpt lat="46.02549" lon="6.2372">
        <ele>724.49</ele>
        <time>2020-04-17T15:20:39Z</time>
      </trkpt>
      <trkpt lat="46.02571" lon="6.23734">
        <ele>725.45</ele>
        <time>2020-04-17T15:20:40Z</time>
      </trkpt>
      <trkpt lat="46.02594" lon="6.23745">
        <ele>726.41</ele>
        <time>2020-04-17T15:20:41Z</time>
      </trkpt>
      <trkpt lat="46.02618" lon="6.23754">
        <ele>727.37</ele>
        <time>2020-04-17T15:20:42Z</time>
      </trkpt>
      <trkpt lat="46.02642" lon="6.23759">
        <ele>728.34</ele>
        <time>2020-04-17T15:20:43Z</time>
      </trkpt>
      <trkpt lat="46.02667" lon="6.23764">
        <ele>729.3</ele>
        <time>2020-04-17T15:20:44Z</time>
      </trkpt>
      <trkpt lat="46.02894" lon="6.23814">
        <ele>739.39</ele>
        <time>2020-04-17T15:20:54Z</time>
      </trkpt>
      <trkpt lat="46.03035" lon="6.23889">
        <ele>743.72</ele>
        <time>2020-04-17T15:21:01Z</time>
      </trkpt>
      <trkpt lat="46.03148" lon="6.24012">
        <ele>744.68</ele>
        <time>2020-04-17T15:21:08Z</time>
      </trkpt>
      <trkpt lat="46.03263" lon="6.24154">
        <ele>748.52</ele>
        <time>2020-04-17T15:21:16Z</time>
      </trkpt>
      <trkpt lat="46.03304" lon="6.24224">
        <ele>749</ele>
        <time>2020-04-17T15:21:20Z</time>
      </trkpt>
      <trkpt lat="46.03317" lon="6.24238">
        <ele>749</ele>
        <time>2020-04-17T15:21:21Z</time>
      </trkpt>
      <trkpt lat="46.03332" lon="6.2425">
        <ele>749</ele>
        <time>2020-04-17T15:21:22Z</time>
      </trkpt>
      <trkpt lat="46.03348" lon="6.24261">
        <ele>749.49</ele>
        <time>2020-04-17T15:21:23Z</time>
      </trkpt>
      <trkpt lat="46.03364" lon="6.24268">
        <ele>749.97</ele>
        <time>2020-04-17T15:21:24Z</time>
      </trkpt>
      <trkpt lat="46.03379" lon="6.24272">
        <ele>750.45</ele>
        <time>2020-04-17T15:21:25Z</time>
      </trkpt>
      <trkpt lat="46.03398" lon="6.24269">
        <ele>750.45</ele>
        <time>2020-04-17T15:21:26Z</time>
      </trkpt>
      <trkpt lat="46.03414" lon="6.24264">
        <ele>750.93</ele>
        <time>2020-04-17T15:21:27Z</time>
      </trkpt>
      <trkpt lat="46.0343" lon="6.24254">
        <ele>751.41</ele>
        <time>2020-04-17T15:21:28Z</time>
      </trkpt>
      <trkpt lat="46.03444" lon="6.24242">
        <ele>752.37</ele>
        <time>2020-04-17T15:21:29Z</time>
      </trkpt>
      <trkpt lat="46.03456" lon="6.24223">
        <ele>752.85</ele>
        <time>2020-04-17T15:21:30Z</time>
      </trkpt>
      <trkpt lat="46.03468" lon="6.24205">
        <ele>753.33</ele>
        <time>2020-04-17T15:21:31Z</time>
      </trkpt>
      <trkpt lat="46.0348" lon="6.24186">
        <ele>754.29</ele>
        <time>2020-04-17T15:21:32Z</time>
      </trkpt>
      <trkpt lat="46.03493" lon="6.24166">
        <ele>754.77</ele>
        <time>2020-04-17T15:21:33Z</time>
      </trkpt>
      <trkpt lat="46.03519" lon="6.24122">
        <ele>756.69</ele>
        <time>2020-04-17T15:21:35Z</time>
      </trkpt>
      <trkpt lat="46.03533" lon="6.24102">
        <ele>757.66</ele>
        <time>2020-04-17T15:21:36Z</time>
      </trkpt>
      <trkpt lat="46.03549" lon="6.24088">
        <ele>758.62</ele>
        <time>2020-04-17T15:21:37Z</time>
      </trkpt>
      <trkpt lat="46.03567" lon="6.2408">
        <ele>759.1</ele>
        <time>2020-04-17T15:21:38Z</time>
      </trkpt>
      <trkpt lat="46.03585" lon="6.24074">
        <ele>760.06</ele>
        <time>2020-04-17T15:21:39Z</time>
      </trkpt>
      <trkpt lat="46.03602" lon="6.24071">
        <ele>761.5</ele>
        <time>2020-04-17T15:21:40Z</time>
      </trkpt>
      <trkpt lat="46.03619" lon="6.24073">
        <ele>762.46</ele>
        <time>2020-04-17T15:21:41Z</time>
      </trkpt>
      <trkpt lat="46.03636" lon="6.24075">
        <ele>763.9</ele>
        <time>2020-04-17T15:21:42Z</time>
      </trkpt>
      <trkpt lat="46.03652" lon="6.24082">
        <ele>764.87</ele>
        <time>2020-04-17T15:21:43Z</time>
      </trkpt>
      <trkpt lat="46.03668" lon="6.24092">
        <ele>765.83</ele>
        <time>2020-04-17T15:21:44Z</time>
      </trkpt>
      <trkpt lat="46.03684" lon="6.24106">
        <ele>766.31</ele>
        <time>2020-04-17T15:21:45Z</time>
      </trkpt>
      <trkpt lat="46.037" lon="6.24121">
        <ele>767.75</ele>
        <time>2020-04-17T15:21:46Z</time>
      </trkpt>
      <trkpt lat="46.03714" lon="6.2414">
        <ele>768.71</ele>
        <time>2020-04-17T15:21:47Z</time>
      </trkpt>
      <trkpt lat="46.03729" lon="6.24162">
        <ele>770.15</ele>
        <time>2020-04-17T15:21:48Z</time>
      </trkpt>
      <trkpt lat="46.03744" lon="6.24185">
        <ele>771.6</ele>
        <time>2020-04-17T15:21:49Z</time>
      </trkpt>
      <trkpt lat="46.03761" lon="6.2421">
        <ele>773.52</ele>
        <time>2020-04-17T15:21:50Z</time>
      </trkpt>
      <trkpt lat="46.03771" lon="6.24239">
        <ele>774.96</ele>
        <time>2020-04-17T15:21:51Z</time>
      </trkpt>
      <trkpt lat="46.03782" lon="6.24269">
        <ele>776.4</ele>
        <time>2020-04-17T15:21:52Z</time>
      </trkpt>
      <trkpt lat="46.03793" lon="6.24301">
        <ele>778.32</ele>
        <time>2020-04-17T15:21:53Z</time>
      </trkpt>
      <trkpt lat="46.038" lon="6.24335">
        <ele>780.25</ele>
        <time>2020-04-17T15:21:54Z</time>
      </trkpt>
      <trkpt lat="46.03849" lon="6.2455">
        <ele>791.78</ele>
        <time>2020-04-17T15:22:01Z</time>
      </trkpt>
      <trkpt lat="46.0386" lon="6.24576">
        <ele>792.74</ele>
        <time>2020-04-17T15:22:02Z</time>
      </trkpt>
      <trkpt lat="46.03873" lon="6.246">
        <ele>794.19</ele>
        <time>2020-04-17T15:22:03Z</time>
      </trkpt>
      <trkpt lat="46.03888" lon="6.24621">
        <ele>794.67</ele>
        <time>2020-04-17T15:22:04Z</time>
      </trkpt>
      <trkpt lat="46.03903" lon="6.2464">
        <ele>795.63</ele>
        <time>2020-04-17T15:22:05Z</time>
      </trkpt>
      <trkpt lat="46.0392" lon="6.24656">
        <ele>796.59</ele>
        <time>2020-04-17T15:22:06Z</time>
      </trkpt>
      <trkpt lat="46.03936" lon="6.24673">
        <ele>796.59</ele>
        <time>2020-04-17T15:22:07Z</time>
      </trkpt>
      <trkpt lat="46.03954" lon="6.24684">
        <ele>797.07</ele>
        <time>2020-04-17T15:22:08Z</time>
      </trkpt>
      <trkpt lat="46.03971" lon="6.24694">
        <ele>797.55</ele>
        <time>2020-04-17T15:22:09Z</time>
      </trkpt>
      <trkpt lat="46.0399" lon="6.24703">
        <ele>797.55</ele>
        <time>2020-04-17T15:22:10Z</time>
      </trkpt>
      <trkpt lat="46.04008" lon="6.24708">
        <ele>797.55</ele>
        <time>2020-04-17T15:22:11Z</time>
      </trkpt>
      <trkpt lat="46.0412" lon="6.24761">
        <ele>794.67</ele>
        <time>2020-04-17T15:22:17Z</time>
      </trkpt>
      <trkpt lat="46.04136" lon="6.2478">
        <ele>793.22</ele>
        <time>2020-04-17T15:22:18Z</time>
      </trkpt>
      <trkpt lat="46.04153" lon="6.24799">
        <ele>792.26</ele>
        <time>2020-04-17T15:22:19Z</time>
      </trkpt>
      <trkpt lat="46.04332" lon="6.25059">
        <ele>792.26</ele>
        <time>2020-04-17T15:22:30Z</time>
      </trkpt>
      <trkpt lat="46.04345" lon="6.25085">
        <ele>793.22</ele>
        <time>2020-04-17T15:22:31Z</time>
      </trkpt>
      <trkpt lat="46.04356" lon="6.25113">
        <ele>794.19</ele>
        <time>2020-04-17T15:22:32Z</time>
      </trkpt>
      <trkpt lat="46.04365" lon="6.25141">
        <ele>795.63</ele>
        <time>2020-04-17T15:22:33Z</time>
      </trkpt>
      <trkpt lat="46.04374" lon="6.2517">
        <ele>797.07</ele>
        <time>2020-04-17T15:22:34Z</time>
      </trkpt>
      <trkpt lat="46.04428" lon="6.25411">
        <ele>803.8</ele>
        <time>2020-04-17T15:22:43Z</time>
      </trkpt>
      <trkpt lat="46.04495" lon="6.25593">
        <ele>805.72</ele>
        <time>2020-04-17T15:22:51Z</time>
      </trkpt>
      <trkpt lat="46.04615" lon="6.25845">
        <ele>802.36</ele>
        <time>2020-04-17T15:23:03Z</time>
      </trkpt>
      <trkpt lat="46.04731" lon="6.26084">
        <ele>799.95</ele>
        <time>2020-04-17T15:23:14Z</time>
      </trkpt>
      <trkpt lat="46.04865" lon="6.26352">
        <ele>791.3</ele>
        <time>2020-04-17T15:23:26Z</time>
      </trkpt>
      <trkpt lat="46.04944" lon="6.26442">
        <ele>786.02</ele>
        <time>2020-04-17T15:23:33Z</time>
      </trkpt>
      <trkpt lat="46.05023" lon="6.26506">
        <ele>778.81</ele>
        <time>2020-04-17T15:23:42Z</time>
      </trkpt>
      <trkpt lat="46.05092" lon="6.26597">
        <ele>773.04</ele>
        <time>2020-04-17T15:23:51Z</time>
      </trkpt>
      <trkpt lat="46.05139" lon="6.26735">
        <ele>770.15</ele>
        <time>2020-04-17T15:24:03Z</time>
      </trkpt>
      <trkpt lat="46.05148" lon="6.26865">
        <ele>768.71</ele>
        <time>2020-04-17T15:24:11Z</time>
      </trkpt>
      <trkpt lat="46.05135" lon="6.27008">
        <ele>768.71</ele>
        <time>2020-04-17T15:24:21Z</time>
      </trkpt>
      <trkpt lat="46.05124" lon="6.27196">
        <ele>764.87</ele>
        <time>2020-04-17T15:24:33Z</time>
      </trkpt>
      <trkpt lat="46.05131" lon="6.27347">
        <ele>761.98</ele>
        <time>2020-04-17T15:24:42Z</time>
      </trkpt>
      <trkpt lat="46.05152" lon="6.27497">
        <ele>755.25</ele>
        <time>2020-04-17T15:24:53Z</time>
      </trkpt>
      <trkpt lat="46.0518" lon="6.27621">
        <ele>751.41</ele>
        <time>2020-04-17T15:25:00Z</time>
      </trkpt>
      <trkpt lat="46.05224" lon="6.27765">
        <ele>749.49</ele>
        <time>2020-04-17T15:25:05Z</time>
      </trkpt>
      <trkpt lat="46.05291" lon="6.27958">
        <ele>747.08</ele>
        <time>2020-04-17T15:25:09Z</time>
      </trkpt>
      <trkpt lat="46.05383" lon="6.28219">
        <ele>742.76</ele>
        <time>2020-04-17T15:25:14Z</time>
      </trkpt>
      <trkpt lat="46.05521" lon="6.28617">
        <ele>733.62</ele>
        <time>2020-04-17T15:25:23Z</time>
      </trkpt>
      <trkpt lat="46.05606" lon="6.28847">
        <ele>726.89</ele>
        <time>2020-04-17T15:25:29Z</time>
      </trkpt>
      <trkpt lat="46.05625" lon="6.28878">
        <ele>725.45</ele>
        <time>2020-04-17T15:25:30Z</time>
      </trkpt>
      <trkpt lat="46.05643" lon="6.28908">
        <ele>724.01</ele>
        <time>2020-04-17T15:25:31Z</time>
      </trkpt>
      <trkpt lat="46.05664" lon="6.28934">
        <ele>723.05</ele>
        <time>2020-04-17T15:25:32Z</time>
      </trkpt>
      <trkpt lat="46.05687" lon="6.28956">
        <ele>721.61</ele>
        <time>2020-04-17T15:25:33Z</time>
      </trkpt>
      <trkpt lat="46.05712" lon="6.28974">
        <ele>720.65</ele>
        <time>2020-04-17T15:25:34Z</time>
      </trkpt>
      <trkpt lat="46.05739" lon="6.2899">
        <ele>719.2</ele>
        <time>2020-04-17T15:25:35Z</time>
      </trkpt>
      <trkpt lat="46.05768" lon="6.29">
        <ele>717.76</ele>
        <time>2020-04-17T15:25:36Z</time>
      </trkpt>
      <trkpt lat="46.05797" lon="6.29007">
        <ele>716.8</ele>
        <time>2020-04-17T15:25:37Z</time>
      </trkpt>
      <trkpt lat="46.05826" lon="6.29009">
        <ele>715.36</ele>
        <time>2020-04-17T15:25:38Z</time>
      </trkpt>
      <trkpt lat="46.05856" lon="6.29006">
        <ele>713.92</ele>
        <time>2020-04-17T15:25:39Z</time>
      </trkpt>
      <trkpt lat="46.05888" lon="6.29002">
        <ele>712.47</ele>
        <time>2020-04-17T15:25:40Z</time>
      </trkpt>
      <trkpt lat="46.0592" lon="6.28991">
        <ele>711.03</ele>
        <time>2020-04-17T15:25:41Z</time>
      </trkpt>
      <trkpt lat="46.05953" lon="6.2898">
        <ele>709.11</ele>
        <time>2020-04-17T15:25:42Z</time>
      </trkpt>
      <trkpt lat="46.06173" lon="6.28907">
        <ele>697.57</ele>
        <time>2020-04-17T15:25:49Z</time>
      </trkpt>
      <trkpt lat="46.06346" lon="6.28853">
        <ele>686.04</ele>
        <time>2020-04-17T15:25:56Z</time>
      </trkpt>
      <trkpt lat="46.06411" lon="6.28839">
        <ele>681.23</ele>
        <time>2020-04-17T15:26:00Z</time>
      </trkpt>
      <trkpt lat="46.06423" lon="6.28837">
        <ele>680.27</ele>
        <time>2020-04-17T15:26:01Z</time>
      </trkpt>
      <trkpt lat="46.06434" lon="6.28858">
        <ele>679.31</ele>
        <time>2020-04-17T15:26:02Z</time>
      </trkpt>
      <trkpt lat="46.06447" lon="6.28856">
        <ele>678.83</ele>
        <time>2020-04-17T15:26:03Z</time>
      </trkpt>
      <trkpt lat="46.06455" lon="6.2885">
        <ele>678.35</ele>
        <time>2020-04-17T15:26:04Z</time>
      </trkpt>
      <trkpt lat="46.06462" lon="6.28831">
        <ele>678.35</ele>
        <time>2020-04-17T15:26:05Z</time>
      </trkpt>
      <trkpt lat="46.06475" lon="6.28827">
        <ele>677.87</ele>
        <time>2020-04-17T15:26:06Z</time>
      </trkpt>
      <trkpt lat="46.06491" lon="6.28823">
        <ele>677.39</ele>
        <time>2020-04-17T15:26:07Z</time>
      </trkpt>
      <trkpt lat="46.06603" lon="6.28759">
        <ele>673.06</ele>
        <time>2020-04-17T15:26:12Z</time>
      </trkpt>
      <trkpt lat="46.06746" lon="6.28681">
        <ele>665.85</ele>
        <time>2020-04-17T15:26:18Z</time>
      </trkpt>
      <trkpt lat="46.0677" lon="6.28676">
        <ele>664.41</ele>
        <time>2020-04-17T15:26:19Z</time>
      </trkpt>
      <trkpt lat="46.06793" lon="6.28672">
        <ele>663.45</ele>
        <time>2020-04-17T15:26:20Z</time>
      </trkpt>
      <trkpt lat="46.06817" lon="6.28677">
        <ele>662.01</ele>
        <time>2020-04-17T15:26:21Z</time>
      </trkpt>
      <trkpt lat="46.0684" lon="6.28683">
        <ele>661.04</ele>
        <time>2020-04-17T15:26:22Z</time>
      </trkpt>
      <trkpt lat="46.06864" lon="6.28691">
        <ele>659.6</ele>
        <time>2020-04-17T15:26:23Z</time>
      </trkpt>
      <trkpt lat="46.06887" lon="6.28705">
        <ele>658.16</ele>
        <time>2020-04-17T15:26:24Z</time>
      </trkpt>
      <trkpt lat="46.0691" lon="6.28719">
        <ele>657.2</ele>
        <time>2020-04-17T15:26:25Z</time>
      </trkpt>
      <trkpt lat="46.06932" lon="6.28735">
        <ele>656.24</ele>
        <time>2020-04-17T15:26:26Z</time>
      </trkpt>
      <trkpt lat="46.0702" lon="6.28796">
        <ele>650.95</ele>
        <time>2020-04-17T15:26:30Z</time>
      </trkpt>
      <trkpt lat="46.07043" lon="6.28804">
        <ele>649.51</ele>
        <time>2020-04-17T15:26:31Z</time>
      </trkpt>
      <trkpt lat="46.07066" lon="6.2881">
        <ele>648.07</ele>
        <time>2020-04-17T15:26:32Z</time>
      </trkpt>
      <trkpt lat="46.07089" lon="6.28815">
        <ele>647.1</ele>
        <time>2020-04-17T15:26:33Z</time>
      </trkpt>
      <trkpt lat="46.07111" lon="6.28818">
        <ele>645.66</ele>
        <time>2020-04-17T15:26:34Z</time>
      </trkpt>
      <trkpt lat="46.07328" lon="6.28846">
        <ele>632.68</ele>
        <time>2020-04-17T15:26:44Z</time>
      </trkpt>
      <trkpt lat="46.07367" lon="6.28867">
        <ele>629.8</ele>
        <time>2020-04-17T15:26:46Z</time>
      </trkpt>
      <trkpt lat="46.07385" lon="6.2888">
        <ele>628.36</ele>
        <time>2020-04-17T15:26:47Z</time>
      </trkpt>
      <trkpt lat="46.07402" lon="6.28896">
        <ele>627.4</ele>
        <time>2020-04-17T15:26:48Z</time>
      </trkpt>
      <trkpt lat="46.07418" lon="6.28916">
        <ele>625.96</ele>
        <time>2020-04-17T15:26:49Z</time>
      </trkpt>
      <trkpt lat="46.07431" lon="6.28937">
        <ele>624.99</ele>
        <time>2020-04-17T15:26:50Z</time>
      </trkpt>
      <trkpt lat="46.07445" lon="6.28959">
        <ele>624.03</ele>
        <time>2020-04-17T15:26:51Z</time>
      </trkpt>
      <trkpt lat="46.07457" lon="6.28982">
        <ele>623.07</ele>
        <time>2020-04-17T15:26:52Z</time>
      </trkpt>
      <trkpt lat="46.07466" lon="6.29006">
        <ele>622.59</ele>
        <time>2020-04-17T15:26:53Z</time>
      </trkpt>
      <trkpt lat="46.07473" lon="6.29032">
        <ele>621.63</ele>
        <time>2020-04-17T15:26:54Z</time>
      </trkpt>
      <trkpt lat="46.07479" lon="6.29057">
        <ele>621.15</ele>
        <time>2020-04-17T15:26:55Z</time>
      </trkpt>
      <trkpt lat="46.07512" lon="6.2918">
        <ele>617.3</ele>
        <time>2020-04-17T15:27:01Z</time>
      </trkpt>
      <trkpt lat="46.07518" lon="6.29194">
        <ele>616.34</ele>
        <time>2020-04-17T15:27:02Z</time>
      </trkpt>
      <trkpt lat="46.07517" lon="6.29221">
        <ele>615.86</ele>
        <time>2020-04-17T15:27:03Z</time>
      </trkpt>
      <trkpt lat="46.0751" lon="6.29241">
        <ele>614.9</ele>
        <time>2020-04-17T15:27:04Z</time>
      </trkpt>
      <trkpt lat="46.07503" lon="6.29264">
        <ele>614.42</ele>
        <time>2020-04-17T15:27:05Z</time>
      </trkpt>
      <trkpt lat="46.07495" lon="6.29288">
        <ele>613.94</ele>
        <time>2020-04-17T15:27:06Z</time>
      </trkpt>
      <trkpt lat="46.07477" lon="6.2934">
        <ele>612.5</ele>
        <time>2020-04-17T15:27:08Z</time>
      </trkpt>
      <trkpt lat="46.07467" lon="6.29367">
        <ele>611.54</ele>
        <time>2020-04-17T15:27:09Z</time>
      </trkpt>
      <trkpt lat="46.07454" lon="6.29392">
        <ele>610.57</ele>
        <time>2020-04-17T15:27:10Z</time>
      </trkpt>
      <trkpt lat="46.07318" lon="6.29598">
        <ele>602.88</ele>
        <time>2020-04-17T15:27:19Z</time>
      </trkpt>
      <trkpt lat="46.07198" lon="6.29739">
        <ele>597.12</ele>
        <time>2020-04-17T15:27:27Z</time>
      </trkpt>
      <trkpt lat="46.07135" lon="6.29827">
        <ele>594.23</ele>
        <time>2020-04-17T15:27:33Z</time>
      </trkpt>
      <trkpt lat="46.07092" lon="6.29952">
        <ele>591.83</ele>
        <time>2020-04-17T15:27:40Z</time>
      </trkpt>
      <trkpt lat="46.0708" lon="6.30029">
        <ele>588.95</ele>
        <time>2020-04-17T15:27:45Z</time>
      </trkpt>
      <trkpt lat="46.07074" lon="6.30047">
        <ele>588.95</ele>
        <time>2020-04-17T15:27:46Z</time>
      </trkpt>
      <trkpt lat="46.07078" lon="6.30057">
        <ele>588.46</ele>
        <time>2020-04-17T15:27:47Z</time>
      </trkpt>
      <trkpt lat="46.07078" lon="6.30057">
        <ele>588.46</ele>
        <time>2020-04-17T15:27:48Z</time>
      </trkpt>
      <trkpt lat="46.07084" lon="6.30081">
        <ele>588.46</ele>
        <time>2020-04-17T15:27:49Z</time>
      </trkpt>
      <trkpt lat="46.07082" lon="6.30096">
        <ele>587.98</ele>
        <time>2020-04-17T15:27:50Z</time>
      </trkpt>
      <trkpt lat="46.07077" lon="6.30108">
        <ele>587.5</ele>
        <time>2020-04-17T15:27:51Z</time>
      </trkpt>
      <trkpt lat="46.07071" lon="6.30121">
        <ele>587.5</ele>
        <time>2020-04-17T15:27:52Z</time>
      </trkpt>
      <trkpt lat="46.07065" lon="6.30135">
        <ele>587.02</ele>
        <time>2020-04-17T15:27:53Z</time>
      </trkpt>
      <trkpt lat="46.07059" lon="6.3015">
        <ele>587.02</ele>
        <time>2020-04-17T15:27:54Z</time>
      </trkpt>
      <trkpt lat="46.07049" lon="6.30199">
        <ele>586.54</ele>
        <time>2020-04-17T15:27:57Z</time>
      </trkpt>
      <trkpt lat="46.07046" lon="6.30212">
        <ele>586.06</ele>
        <time>2020-04-17T15:27:58Z</time>
      </trkpt>
      <trkpt lat="46.07043" lon="6.30224">
        <ele>585.58</ele>
        <time>2020-04-17T15:27:59Z</time>
      </trkpt>
      <trkpt lat="46.07031" lon="6.30238">
        <ele>585.1</ele>
        <time>2020-04-17T15:28:00Z</time>
      </trkpt>
      <trkpt lat="46.07021" lon="6.30242">
        <ele>584.62</ele>
        <time>2020-04-17T15:28:01Z</time>
      </trkpt>
      <trkpt lat="46.07009" lon="6.30248">
        <ele>584.62</ele>
        <time>2020-04-17T15:28:02Z</time>
      </trkpt>
      <trkpt lat="46.06903" lon="6.303">
        <ele>581.25</ele>
        <time>2020-04-17T15:28:10Z</time>
      </trkpt>
      <trkpt lat="46.06871" lon="6.30316">
        <ele>578.37</ele>
        <time>2020-04-17T15:28:15Z</time>
      </trkpt>
      <trkpt lat="46.06867" lon="6.30318">
        <ele>578.37</ele>
        <time>2020-04-17T15:28:16Z</time>
      </trkpt>
      <trkpt lat="46.06859" lon="6.30321">
        <ele>577.89</ele>
        <time>2020-04-17T15:28:17Z</time>
      </trkpt>
      <trkpt lat="46.06859" lon="6.30329">
        <ele>577.89</ele>
        <time>2020-04-17T15:28:18Z</time>
      </trkpt>
      <trkpt lat="46.06859" lon="6.30338">
        <ele>577.41</ele>
        <time>2020-04-17T15:28:19Z</time>
      </trkpt>
      <trkpt lat="46.06858" lon="6.30349">
        <ele>576.93</ele>
        <time>2020-04-17T15:28:20Z</time>
      </trkpt>
      <trkpt lat="46.06858" lon="6.3036">
        <ele>575.49</ele>
        <time>2020-04-17T15:28:21Z</time>
      </trkpt>
      <trkpt lat="46.06858" lon="6.30373">
        <ele>574.04</ele>
        <time>2020-04-17T15:28:22Z</time>
      </trkpt>
      <trkpt lat="46.06856" lon="6.30386">
        <ele>573.08</ele>
        <time>2020-04-17T15:28:23Z</time>
      </trkpt>
      <trkpt lat="46.06852" lon="6.30399">
        <ele>572.12</ele>
        <time>2020-04-17T15:28:24Z</time>
      </trkpt>
      <trkpt lat="46.06847" lon="6.30413">
        <ele>571.16</ele>
        <time>2020-04-17T15:28:25Z</time>
      </trkpt>
      <trkpt lat="46.06817" lon="6.30498">
        <ele>567.8</ele>
        <time>2020-04-17T15:28:33Z</time>
      </trkpt>
      <trkpt lat="46.06777" lon="6.30631">
        <ele>564.91</ele>
        <time>2020-04-17T15:28:43Z</time>
      </trkpt>
      <trkpt lat="46.06737" lon="6.3072">
        <ele>561.07</ele>
        <time>2020-04-17T15:28:50Z</time>
      </trkpt>
      <trkpt lat="46.06715" lon="6.3076">
        <ele>559.14</ele>
        <time>2020-04-17T15:28:53Z</time>
      </trkpt>
      <trkpt lat="46.0667" lon="6.30843">
        <ele>559.14</ele>
        <time>2020-04-17T15:29:00Z</time>
      </trkpt>
      <trkpt lat="46.06642" lon="6.30894">
        <ele>560.11</ele>
        <time>2020-04-17T15:29:05Z</time>
      </trkpt>
      <trkpt lat="46.0664" lon="6.30898">
        <ele>560.11</ele>
        <time>2020-04-17T15:29:06Z</time>
      </trkpt>
      <trkpt lat="46.06643" lon="6.30909">
        <ele>560.11</ele>
        <time>2020-04-17T15:29:07Z</time>
      </trkpt>
      <trkpt lat="46.06647" lon="6.30911">
        <ele>560.11</ele>
        <time>2020-04-17T15:29:08Z</time>
      </trkpt>
      <trkpt lat="46.06652" lon="6.30911">
        <ele>560.11</ele>
        <time>2020-04-17T15:29:09Z</time>
      </trkpt>
      <trkpt lat="46.06659" lon="6.30909">
        <ele>560.11</ele>
        <time>2020-04-17T15:29:10Z</time>
      </trkpt>
      <trkpt lat="46.06674" lon="6.30905">
        <ele>560.59</ele>
        <time>2020-04-17T15:29:12Z</time>
      </trkpt>
      <trkpt lat="46.0669" lon="6.30901">
        <ele>562.51</ele>
        <time>2020-04-17T15:29:14Z</time>
      </trkpt>
      <trkpt lat="46.06697" lon="6.30892">
        <ele>562.51</ele>
        <time>2020-04-17T15:29:15Z</time>
      </trkpt>
      <trkpt lat="46.06704" lon="6.30882">
        <ele>562.51</ele>
        <time>2020-04-17T15:29:16Z</time>
      </trkpt>
      <trkpt lat="46.06745" lon="6.30819">
        <ele>563.95</ele>
        <time>2020-04-17T15:29:22Z</time>
      </trkpt>
      <trkpt lat="46.06748" lon="6.30814">
        <ele>564.43</ele>
        <time>2020-04-17T15:29:23Z</time>
      </trkpt>
      <trkpt lat="46.06749" lon="6.30812">
        <ele>564.43</ele>
        <time>2020-04-17T15:29:24Z</time>
      </trkpt>
      <trkpt lat="46.0675" lon="6.30811">
        <ele>564.91</ele>
        <time>2020-04-17T15:29:25Z</time>
      </trkpt>
      <trkpt lat="46.0675" lon="6.30811">
        <ele>564.91</ele>
        <time>2020-04-17T15:29:35Z</time>
      </trkpt>
      <trkpt lat="46.0675" lon="6.30811">
        <ele>564.91</ele>
        <time>2020-04-17T15:29:56Z</time>
      </trkpt>
      <trkpt lat="46.06742" lon="6.30799">
        <ele>564.43</ele>
        <time>2020-04-17T15:30:00Z</time>
      </trkpt>
    </trkseg>
  </trk>
</gpx>